createdAt,value
2022-12-01T00:00:10.226Z,94.67
2022-12-01T00:02:36.806Z,94.94
2022-12-01T00:05:03.594Z,94.99
2022-12-01T00:07:30.168Z,94.97
2022-12-01T00:10:15.436Z,95.03
2022-12-01T00:12:43.631Z,95.03
2022-12-01T00:15:11.456Z,95.00
2022-12-01T00:17:38.815Z,95.10
2022-12-01T00:20:06.843Z,94.91
2022-12-01T00:22:33.341Z,95.07
2022-12-01T00:24:59.825Z,95.32
2022-12-01T00:27:26.199Z,95.26
2022-12-01T00:29:52.575Z,95.55
2022-12-01T00:32:19.156Z,95.53
2022-12-01T00:34:45.582Z,95.27
2022-12-01T00:37:11.993Z,95.28
2022-12-01T00:39:38.393Z,95.49
2022-12-01T00:42:10.048Z,95.44
2022-12-01T00:44:39.660Z,95.32
2022-12-01T00:47:06.190Z,95.30
2022-12-01T00:49:32.678Z,95.48
2022-12-01T00:51:59.241Z,95.44
2022-12-01T00:54:25.661Z,95.64
2022-12-01T00:56:52.177Z,95.76
2022-12-01T00:59:18.877Z,95.63
2022-12-01T01:01:45.345Z,95.56
2022-12-01T01:04:12.262Z,95.55
2022-12-01T01:06:38.754Z,95.49
2022-12-01T01:09:05.231Z,95.44
2022-12-01T01:11:31.659Z,95.46
2022-12-01T01:13:59.502Z,95.58
2022-12-01T01:16:26.719Z,95.47
2022-12-01T01:18:53.557Z,95.56
2022-12-01T01:21:21.744Z,95.39
2022-12-01T01:23:49.883Z,95.18
2022-12-01T01:26:23.355Z,95.08
2022-12-01T01:28:51.385Z,95.18
2022-12-01T01:31:23.530Z,95.33
2022-12-01T01:33:50.296Z,95.20
2022-12-01T01:36:18.225Z,95.17
2022-12-01T01:38:45.009Z,95.15
2022-12-01T01:41:12.012Z,95.27
2022-12-01T01:43:43.095Z,95.40
2022-12-01T01:46:19.272Z,95.67
2022-12-01T01:48:53.393Z,95.55
2022-12-01T01:51:25.621Z,95.12
2022-12-01T01:53:56.538Z,95.15
2022-12-01T01:56:23.687Z,95.27
2022-12-01T01:58:51.517Z,95.28
2022-12-01T02:01:18.184Z,95.42
2022-12-01T02:03:46.108Z,95.35
2022-12-01T02:06:13.711Z,95.31
2022-12-01T02:08:40.177Z,95.29
2022-12-01T02:11:48.251Z,95.47
2022-12-01T02:14:41.056Z,95.29
2022-12-01T02:17:24.629Z,95.23
2022-12-01T02:20:06.364Z,94.91
2022-12-01T02:23:05.270Z,95.04
2022-12-01T02:25:59.226Z,95.19
2022-12-01T02:28:54.714Z,95.01
2022-12-01T02:32:15.328Z,94.97
2022-12-01T02:34:44.626Z,94.84
2022-12-01T02:37:29.427Z,94.44
2022-12-01T02:40:14.029Z,94.37
2022-12-01T02:42:54.507Z,94.29
2022-12-01T02:45:32.042Z,94.41
2022-12-01T02:48:02.908Z,94.43
2022-12-01T02:50:32.528Z,94.57
2022-12-01T02:53:01.334Z,94.57
2022-12-01T02:55:27.808Z,94.40
2022-12-01T02:57:54.241Z,94.42
2022-12-01T03:00:20.695Z,94.55
2022-12-01T03:03:31.110Z,94.35
2022-12-01T03:06:24.008Z,94.42
2022-12-01T03:09:08.663Z,94.38
2022-12-01T03:11:51.593Z,94.62
2022-12-01T03:14:33.566Z,94.57
2022-12-01T03:17:07.472Z,94.90
2022-12-01T03:19:49.685Z,94.86
2022-12-01T03:22:42.705Z,94.84
2022-12-01T03:25:12.080Z,94.94
2022-12-01T03:28:00.689Z,95.31
2022-12-01T03:30:33.586Z,95.18
2022-12-01T03:33:14.025Z,95.14
2022-12-01T03:35:50.503Z,95.10
2022-12-01T03:38:28.329Z,94.96
2022-12-01T03:41:07.478Z,94.93
2022-12-01T03:43:38.658Z,95.07
2022-12-01T03:46:24.190Z,95.05
2022-12-01T03:48:54.238Z,94.91
2022-12-01T03:51:36.783Z,94.93
2022-12-01T03:54:37.728Z,95.08
2022-12-01T03:57:08.427Z,94.89
2022-12-01T03:59:37.033Z,94.98
2022-12-01T04:02:05.428Z,95.04
2022-12-01T04:04:31.921Z,95.07
2022-12-01T04:06:58.318Z,95.17
2022-12-01T04:09:24.732Z,95.14
2022-12-01T04:12:09.980Z,95.38
2022-12-01T04:14:36.438Z,95.09
2022-12-01T04:17:02.902Z,95.05
2022-12-01T04:19:29.351Z,95.16
2022-12-01T04:21:55.802Z,95.01
2022-12-01T04:24:22.327Z,94.99
2022-12-01T04:26:48.718Z,95.01
2022-12-01T04:29:15.167Z,95.15
2022-12-01T04:31:41.784Z,94.96
2022-12-01T04:34:10.223Z,95.00
2022-12-01T04:36:36.682Z,95.19
2022-12-01T04:39:04.140Z,94.73
2022-12-01T04:41:30.704Z,94.45
2022-12-01T04:43:57.235Z,94.50
2022-12-01T04:46:24.727Z,94.40
2022-12-01T04:48:51.920Z,94.66
2022-12-01T04:51:18.491Z,94.98
2022-12-01T04:53:44.953Z,94.65
2022-12-01T04:56:11.405Z,94.79
2022-12-01T04:58:38.367Z,94.37
2022-12-01T05:01:10.899Z,94.54
2022-12-01T05:03:39.296Z,94.65
2022-12-01T05:06:15.258Z,94.70
2022-12-01T05:08:43.297Z,94.82
2022-12-01T05:11:12.325Z,94.97
2022-12-01T05:13:40.924Z,94.58
2022-12-01T05:16:09.063Z,94.97
2022-12-01T05:18:35.959Z,94.46
2022-12-01T05:21:04.271Z,94.61
2022-12-01T05:23:33.044Z,94.65
2022-12-01T05:26:00.266Z,94.50
2022-12-01T05:28:27.494Z,94.41
2022-12-01T05:30:54.502Z,94.39
2022-12-01T05:33:22.700Z,94.41
2022-12-01T05:35:50.281Z,94.24
2022-12-01T05:38:17.767Z,94.56
2022-12-01T05:40:53.605Z,94.57
2022-12-01T05:43:25.423Z,94.31
2022-12-01T05:45:55.776Z,94.18
2022-12-01T05:48:22.332Z,94.51
2022-12-01T05:50:48.709Z,94.33
2022-12-01T05:53:15.631Z,94.70
2022-12-01T05:55:42.773Z,94.44
2022-12-01T05:58:09.742Z,94.38
2022-12-01T06:00:45.046Z,94.40
2022-12-01T06:03:12.433Z,94.49
2022-12-01T06:05:38.985Z,94.41
2022-12-01T06:08:05.524Z,94.48
2022-12-01T06:10:31.930Z,94.30
2022-12-01T06:12:58.338Z,94.15
2022-12-01T06:15:24.806Z,94.25
2022-12-01T06:17:51.249Z,94.04
2022-12-01T06:20:17.733Z,94.01
2022-12-01T06:22:44.148Z,94.17
2022-12-01T06:25:10.922Z,94.23
2022-12-01T06:27:37.361Z,94.00
2022-12-01T06:30:05.038Z,93.62
2022-12-01T06:32:31.462Z,93.89
2022-12-01T06:34:57.834Z,93.63
2022-12-01T06:37:24.275Z,93.67
2022-12-01T06:39:50.943Z,93.56
2022-12-01T06:42:17.667Z,93.61
2022-12-01T06:44:44.177Z,93.41
2022-12-01T06:47:10.549Z,93.47
2022-12-01T06:49:37.924Z,93.49
2022-12-01T06:52:05.136Z,93.63
2022-12-01T06:54:31.657Z,93.61
2022-12-01T06:56:58.577Z,93.66
2022-12-01T06:59:28.253Z,93.82
2022-12-01T07:01:56.331Z,94.03
2022-12-01T07:04:22.806Z,94.11
2022-12-01T07:06:49.141Z,93.99
2022-12-01T07:09:15.549Z,94.07
2022-12-01T07:11:42.128Z,93.56
2022-12-01T07:14:19.896Z,93.97
2022-12-01T07:16:46.316Z,93.95
2022-12-01T07:19:12.774Z,93.84
2022-12-01T07:21:39.171Z,93.52
2022-12-01T07:24:06.014Z,93.61
2022-12-01T07:26:32.488Z,93.63
2022-12-01T07:28:58.871Z,93.61
2022-12-01T07:31:25.281Z,93.22
2022-12-01T07:33:52.520Z,92.95
2022-12-01T07:36:18.933Z,92.94
2022-12-01T07:38:45.349Z,92.59
2022-12-01T07:41:14.164Z,92.87
2022-12-01T07:43:41.214Z,92.89
2022-12-01T07:46:23.228Z,92.69
2022-12-01T07:48:51.469Z,92.46
2022-12-01T07:51:18.366Z,92.56
2022-12-01T07:53:46.825Z,92.23
2022-12-01T07:56:13.618Z,92.74
2022-12-01T07:58:40.648Z,92.68
2022-12-01T08:01:12.446Z,92.88
2022-12-01T08:03:39.500Z,92.86
2022-12-01T08:06:07.491Z,92.58
2022-12-01T08:08:36.393Z,92.44
2022-12-01T08:11:06.046Z,92.09
2022-12-01T08:13:32.779Z,92.27
2022-12-01T08:15:59.220Z,91.97
2022-12-01T08:18:25.669Z,92.15
2022-12-01T08:20:57.976Z,91.95
2022-12-01T08:23:24.823Z,92.06
2022-12-01T08:25:52.554Z,91.75
2022-12-01T08:28:20.008Z,91.81
2022-12-01T08:30:47.000Z,91.66
2022-12-01T08:33:13.427Z,91.61
2022-12-01T08:35:39.905Z,91.36
2022-12-01T08:38:06.286Z,91.08
2022-12-01T08:40:32.641Z,91.19
2022-12-01T08:42:59.109Z,91.28
2022-12-01T08:45:25.494Z,90.94
2022-12-01T08:47:53.776Z,91.16
2022-12-01T08:50:20.199Z,91.22
2022-12-01T08:52:46.672Z,91.05
2022-12-01T08:55:13.133Z,91.03
2022-12-01T08:57:39.494Z,91.00
2022-12-01T09:00:08.770Z,91.48
2022-12-01T09:02:35.229Z,91.25
2022-12-01T09:05:01.815Z,91.07
2022-12-01T09:07:28.305Z,90.81
2022-12-01T09:09:54.763Z,90.94
2022-12-01T09:12:21.211Z,90.87
2022-12-01T09:14:49.534Z,91.04
2022-12-01T09:17:17.263Z,91.19
2022-12-01T09:19:44.337Z,91.41
2022-12-01T09:22:11.283Z,91.14
2022-12-01T09:24:38.255Z,91.06
2022-12-01T09:27:04.995Z,91.20
2022-12-01T09:29:32.284Z,91.12
2022-12-01T09:32:00.195Z,90.94
2022-12-01T09:34:27.240Z,90.87
2022-12-01T09:36:58.598Z,90.97
2022-12-01T09:39:25.710Z,91.36
2022-12-01T09:42:13.754Z,91.33
2022-12-01T09:44:53.590Z,91.12
2022-12-01T09:47:32.003Z,90.68
2022-12-01T09:50:13.262Z,90.54
2022-12-01T09:52:51.261Z,90.87
2022-12-01T09:55:19.942Z,90.65
2022-12-01T09:57:52.164Z,90.59
2022-12-01T10:00:21.723Z,90.58
2022-12-01T10:03:00.892Z,90.78
2022-12-01T10:05:46.891Z,90.49
2022-12-01T10:08:29.365Z,89.95
2022-12-01T10:11:04.793Z,89.44
2022-12-01T10:13:33.739Z,89.84
2022-12-01T10:16:42.735Z,89.65
2022-12-01T10:19:19.713Z,89.10
2022-12-01T10:22:09.212Z,88.66
2022-12-01T10:24:50.787Z,88.25
2022-12-01T10:27:55.680Z,88.39
2022-12-01T10:30:24.002Z,88.35
2022-12-01T10:33:00.983Z,88.26
2022-12-01T10:35:32.143Z,88.17
2022-12-01T10:38:06.782Z,87.91
2022-12-01T10:40:36.078Z,88.01
2022-12-01T10:43:03.138Z,88.35
2022-12-01T10:45:35.564Z,88.04
2022-12-01T10:48:17.507Z,87.95
2022-12-01T10:50:49.269Z,87.84
2022-12-01T10:53:34.325Z,87.43
2022-12-01T10:56:03.867Z,87.31
2022-12-01T10:58:33.550Z,87.74
2022-12-01T11:01:05.930Z,87.56
2022-12-01T11:03:35.019Z,87.59
2022-12-01T11:06:03.719Z,87.57
2022-12-01T11:08:40.696Z,87.28
2022-12-01T11:11:25.490Z,86.76
2022-12-01T11:13:52.061Z,86.42
2022-12-01T11:16:40.632Z,86.24
2022-12-01T11:19:32.614Z,86.35
2022-12-01T11:22:18.677Z,86.48
2022-12-01T11:24:57.104Z,86.30
2022-12-01T11:27:26.301Z,86.37
2022-12-01T11:29:57.229Z,86.57
2022-12-01T11:32:26.944Z,86.81
2022-12-01T11:34:57.881Z,86.61
2022-12-01T11:37:29.567Z,86.84
2022-12-01T11:40:07.139Z,86.67
2022-12-01T11:42:34.464Z,86.75
2022-12-01T11:45:08.567Z,87.03
2022-12-01T11:47:34.962Z,87.32
2022-12-01T11:50:22.587Z,87.31
2022-12-01T11:52:48.976Z,87.23
2022-12-01T11:55:15.427Z,87.38
2022-12-01T11:57:44.890Z,87.42
2022-12-01T12:00:21.298Z,87.52
2022-12-01T12:03:06.695Z,86.97
2022-12-01T12:06:38.506Z,86.49
2022-12-01T12:09:18.060Z,86.08
2022-12-01T12:11:51.412Z,86.38
2022-12-01T12:14:36.725Z,86.64
2022-12-01T12:17:27.673Z,86.45
2022-12-01T12:20:26.173Z,86.52
2022-12-01T12:23:49.744Z,86.36
2022-12-01T12:26:22.959Z,86.57
2022-12-01T12:28:52.199Z,86.28
2022-12-01T12:31:18.580Z,86.41
2022-12-01T12:34:02.486Z,86.59
2022-12-01T12:36:31.843Z,87.03
2022-12-01T12:39:26.655Z,87.12
2022-12-01T12:41:56.024Z,86.83
2022-12-01T12:44:37.304Z,87.04
2022-12-01T12:47:13.868Z,86.79
2022-12-01T12:50:12.402Z,86.48
2022-12-01T12:52:46.905Z,86.31
2022-12-01T12:55:19.115Z,86.27
2022-12-01T12:57:51.663Z,86.37
2022-12-01T13:00:21.412Z,86.24
2022-12-01T13:03:30.652Z,86.34
2022-12-01T13:06:11.270Z,86.62
2022-12-01T13:08:52.232Z,86.76
2022-12-01T13:11:24.206Z,86.59
2022-12-01T13:14:07.860Z,86.52
2022-12-01T13:16:41.694Z,86.33
2022-12-01T13:19:32.251Z,86.55
2022-12-01T13:21:59.873Z,86.43
2022-12-01T13:24:30.451Z,86.22
2022-12-01T13:27:13.111Z,86.33
2022-12-01T13:29:46.640Z,86.29
2022-12-01T13:32:35.623Z,86.34
2022-12-01T13:35:06.437Z,86.75
2022-12-01T13:37:35.798Z,86.88
2022-12-01T13:40:25.376Z,87.19
2022-12-01T13:42:57.106Z,87.38
2022-12-01T13:45:23.870Z,87.10
2022-12-01T13:47:51.826Z,87.29
2022-12-01T13:50:43.840Z,87.47
2022-12-01T13:53:23.718Z,87.15
2022-12-01T13:56:03.704Z,86.77
2022-12-01T13:58:33.143Z,86.52
2022-12-01T14:01:45.463Z,86.59
2022-12-01T14:04:11.854Z,86.86
2022-12-01T14:06:49.407Z,86.93
2022-12-01T14:09:32.109Z,86.80
2022-12-01T14:12:05.494Z,86.67
2022-12-01T14:14:38.825Z,86.83
2022-12-01T14:17:05.883Z,86.73
2022-12-01T14:19:52.588Z,86.70
2022-12-01T14:22:33.084Z,86.63
2022-12-01T14:25:00.459Z,86.89
2022-12-01T14:27:41.976Z,86.67
2022-12-01T14:30:39.883Z,87.10
2022-12-01T14:33:37.402Z,87.04
2022-12-01T14:36:13.763Z,87.41
2022-12-01T14:38:40.640Z,87.24
2022-12-01T14:41:15.939Z,87.50
2022-12-01T14:44:05.471Z,87.59
2022-12-01T14:46:45.667Z,87.80
2022-12-01T14:49:17.858Z,87.80
2022-12-01T14:51:48.399Z,87.71
2022-12-01T14:54:20.606Z,87.60
2022-12-01T14:56:51.270Z,87.63
2022-12-01T14:59:25.934Z,87.88
2022-12-01T15:01:55.832Z,87.98
2022-12-01T15:04:22.321Z,88.19
2022-12-01T15:06:54.806Z,87.85
2022-12-01T15:09:33.567Z,88.02
2022-12-01T15:12:06.894Z,88.15
2022-12-01T15:14:36.710Z,88.11
2022-12-01T15:17:05.756Z,88.05
2022-12-01T15:19:34.024Z,88.04
2022-12-01T15:22:05.727Z,88.14
2022-12-01T15:24:33.974Z,88.37
2022-12-01T15:27:03.807Z,89.04
2022-12-01T15:29:46.787Z,88.80
2022-12-01T15:32:18.382Z,88.55
2022-12-01T15:34:47.221Z,88.47
2022-12-01T15:37:17.522Z,88.26
2022-12-01T15:39:47.082Z,88.44
2022-12-01T15:42:26.175Z,88.46
2022-12-01T15:45:00.448Z,88.40
2022-12-01T15:47:36.249Z,88.56
2022-12-01T15:50:04.857Z,88.50
2022-12-01T15:52:32.556Z,88.40
2022-12-01T15:55:03.914Z,88.65
2022-12-01T15:57:30.403Z,88.56
2022-12-01T15:59:57.647Z,88.49
2022-12-01T16:02:31.765Z,88.74
2022-12-01T16:05:06.170Z,88.85
2022-12-01T16:08:11.418Z,89.16
2022-12-01T16:10:31.313Z,89.02
2022-12-01T16:13:36.028Z,89.24
2022-12-01T16:16:23.110Z,89.07
2022-12-01T16:18:59.259Z,89.01
2022-12-01T16:21:26.837Z,89.57
2022-12-01T16:24:01.785Z,89.70
2022-12-01T16:26:29.574Z,89.57
2022-12-01T16:28:56.806Z,89.61
2022-12-01T16:31:26.560Z,89.78
2022-12-01T16:34:06.632Z,90.18
2022-12-01T16:36:40.531Z,90.06
2022-12-01T16:39:10.331Z,90.22
2022-12-01T16:41:43.638Z,90.20
2022-12-01T16:44:28.045Z,90.04
2022-12-01T16:46:55.933Z,89.96
2022-12-01T16:49:22.671Z,89.99
2022-12-01T16:51:55.856Z,90.06
2022-12-01T16:54:23.165Z,89.93
2022-12-01T16:56:49.645Z,89.98
2022-12-01T16:59:16.073Z,90.03
2022-12-01T17:01:42.530Z,90.20
2022-12-01T17:04:08.929Z,90.62
2022-12-01T17:06:36.122Z,90.22
2022-12-01T17:09:02.540Z,90.61
2022-12-01T17:11:28.923Z,90.74
2022-12-01T17:13:55.308Z,90.92
2022-12-01T17:16:21.782Z,90.88
2022-12-01T17:18:48.174Z,90.86
2022-12-01T17:21:14.734Z,91.27
2022-12-01T17:23:41.220Z,90.95
2022-12-01T17:26:14.083Z,91.07
2022-12-01T17:28:41.123Z,91.10
2022-12-01T17:31:08.524Z,90.90
2022-12-01T17:33:36.190Z,91.01
2022-12-01T17:36:05.510Z,91.16
2022-12-01T17:38:35.275Z,91.37
2022-12-01T17:41:11.268Z,91.33
2022-12-01T17:43:38.953Z,91.45
2022-12-01T17:46:07.321Z,91.28
2022-12-01T17:48:38.946Z,91.50
2022-12-01T17:51:06.416Z,91.53
2022-12-01T17:53:33.342Z,91.54
2022-12-01T17:55:59.821Z,91.50
2022-12-01T17:58:26.845Z,91.54
2022-12-01T18:00:54.295Z,91.75
2022-12-01T18:03:21.372Z,91.60
2022-12-01T18:05:56.078Z,91.55
2022-12-01T18:08:23.362Z,91.75
2022-12-01T18:10:49.806Z,91.76
2022-12-01T18:13:16.229Z,91.70
2022-12-01T18:15:42.665Z,91.94
2022-12-01T18:18:09.150Z,91.73
2022-12-01T18:20:40.994Z,91.92
2022-12-01T18:23:07.377Z,91.92
2022-12-01T18:25:38.112Z,92.06
2022-12-01T18:28:05.074Z,92.04
2022-12-01T18:30:32.982Z,92.15
2022-12-01T18:33:00.829Z,91.76
2022-12-01T18:35:31.727Z,91.79
2022-12-01T18:37:58.929Z,92.00
2022-12-01T18:40:25.567Z,92.23
2022-12-01T18:42:52.091Z,92.19
2022-12-01T18:45:21.323Z,92.05
2022-12-01T18:47:48.238Z,92.27
2022-12-01T18:50:14.915Z,92.17
2022-12-01T18:52:41.466Z,92.15
2022-12-01T18:55:08.177Z,92.13
2022-12-01T18:57:34.590Z,91.87
2022-12-01T19:00:01.256Z,92.19
2022-12-01T19:02:27.820Z,92.07
2022-12-01T19:04:54.267Z,92.18
2022-12-01T19:07:25.227Z,91.89
2022-12-01T19:09:55.809Z,92.22
2022-12-01T19:12:22.273Z,92.26
2022-12-01T19:14:48.987Z,92.23
2022-12-01T19:17:15.505Z,92.11
2022-12-01T19:19:41.922Z,92.00
2022-12-01T19:22:08.366Z,91.82
2022-12-01T19:24:34.872Z,92.30
2022-12-01T19:27:01.327Z,92.11
2022-12-01T19:29:28.327Z,92.14
2022-12-01T19:31:54.786Z,92.22
2022-12-01T19:34:21.294Z,92.47
2022-12-01T19:36:49.820Z,92.46
2022-12-01T19:39:16.366Z,92.42
2022-12-01T19:41:43.036Z,92.49
2022-12-01T19:44:10.937Z,92.51
2022-12-01T19:46:37.744Z,93.04
2022-12-01T19:49:05.597Z,92.56
2022-12-01T19:51:36.868Z,92.84
2022-12-01T19:54:05.076Z,93.03
2022-12-01T19:56:32.157Z,93.06
2022-12-01T19:58:59.345Z,92.96
2022-12-01T20:01:26.732Z,93.35
2022-12-01T20:03:54.621Z,93.35
2022-12-01T20:06:27.450Z,93.23
2022-12-01T20:08:56.366Z,93.38
2022-12-01T20:11:23.910Z,93.56
2022-12-01T20:13:51.433Z,93.49
2022-12-01T20:16:20.670Z,93.41
2022-12-01T20:18:48.041Z,93.67
2022-12-01T20:21:17.686Z,93.49
2022-12-01T20:23:46.201Z,93.57
2022-12-01T20:26:13.943Z,93.31
2022-12-01T20:28:41.468Z,93.25
2022-12-01T20:31:11.991Z,93.32
2022-12-01T20:33:39.216Z,93.62
2022-12-01T20:36:06.739Z,93.49
2022-12-01T20:38:33.302Z,93.21
2022-12-01T20:41:01.269Z,93.72
2022-12-01T20:43:33.219Z,93.60
2022-12-01T20:46:00.256Z,93.66
2022-12-01T20:48:27.155Z,93.28
2022-12-01T20:50:53.907Z,93.06
2022-12-01T20:53:20.400Z,92.98
2022-12-01T20:55:46.814Z,93.28
2022-12-01T20:58:13.620Z,93.61
2022-12-01T21:00:44.282Z,93.21
2022-12-01T21:03:11.733Z,93.46
2022-12-01T21:05:39.644Z,93.58
2022-12-01T21:08:08.529Z,93.30
2022-12-01T21:10:37.859Z,93.36
2022-12-01T21:13:39.360Z,93.23
2022-12-01T21:16:16.406Z,93.51
2022-12-01T21:18:53.601Z,93.26
2022-12-01T21:21:24.532Z,93.68
2022-12-01T21:24:11.539Z,93.56
2022-12-01T21:26:46.311Z,93.49
2022-12-01T21:29:21.929Z,93.46
2022-12-01T21:31:52.374Z,93.06
2022-12-01T21:34:21.783Z,93.09
2022-12-01T21:36:49.965Z,93.19
2022-12-01T21:39:20.125Z,93.04
2022-12-01T21:41:48.966Z,93.17
2022-12-01T21:44:18.423Z,93.14
2022-12-01T21:46:45.729Z,93.19
2022-12-01T21:49:21.090Z,93.07
2022-12-01T21:51:50.670Z,93.13
2022-12-01T21:54:20.867Z,93.14
2022-12-01T21:56:52.046Z,93.30
2022-12-01T21:59:23.195Z,93.46
2022-12-01T22:01:57.146Z,93.22
2022-12-01T22:04:29.716Z,93.02
2022-12-01T22:06:57.767Z,92.94
2022-12-01T22:09:35.398Z,93.12
2022-12-01T22:12:28.912Z,93.19
2022-12-01T22:15:00.737Z,93.34
2022-12-01T22:17:27.825Z,93.29
2022-12-01T22:20:00.069Z,93.26
2022-12-01T22:22:30.730Z,93.23
2022-12-01T22:25:09.530Z,93.08
2022-12-01T22:27:38.362Z,93.17
2022-12-01T22:30:07.823Z,92.88
2022-12-01T22:32:58.674Z,92.78
2022-12-01T22:35:43.712Z,92.58
2022-12-01T22:38:33.940Z,92.51
2022-12-01T22:41:13.127Z,92.86
2022-12-01T22:43:55.175Z,92.73
2022-12-01T22:46:35.927Z,92.73
2022-12-01T22:49:10.677Z,92.73
2022-12-01T22:51:45.817Z,92.45
2022-12-01T22:54:12.152Z,92.65
2022-12-01T22:56:44.465Z,92.70
2022-12-01T22:59:19.975Z,92.78
2022-12-01T23:02:20.617Z,92.77
2022-12-01T23:04:49.103Z,92.79
2022-12-01T23:07:35.520Z,92.69
2022-12-01T23:10:13.151Z,92.77
2022-12-01T23:12:39.836Z,92.62
2022-12-01T23:15:18.562Z,92.58
2022-12-01T23:17:44.950Z,92.70
2022-12-01T23:20:11.583Z,92.42
2022-12-01T23:22:38.611Z,92.35
2022-12-01T23:25:16.003Z,92.37
2022-12-01T23:27:43.937Z,92.27
2022-12-01T23:30:11.999Z,92.27
2022-12-01T23:32:38.528Z,92.44
2022-12-01T23:35:06.390Z,92.45
2022-12-01T23:37:39.958Z,92.21
2022-12-01T23:40:26.350Z,92.15
2022-12-01T23:42:53.328Z,92.23
2022-12-01T23:45:23.230Z,91.97
2022-12-01T23:47:51.217Z,91.86
2022-12-01T23:50:26.879Z,91.52
2022-12-01T23:52:53.826Z,91.59
2022-12-01T23:55:21.941Z,91.82
2022-12-01T23:57:49.976Z,92.02
